Time;durP1;ratioP1;P1;durP2;ratioP2;P2;SDS_P1;SDS_P2;PMS_P1;PMS_P2;Temp;Humidity;BMP_temperature;BMP_pressure;BME280_temperature;BME280_humidity;BME280_pressure;Samples;Min_cycle;Max_cycle;Signal;HPM_P1;HPM_P2
2021/09/20 00:01:34;;;;;;;0.70;0.70;;;12.20;99.90;;;;;;5093337;28;21103;-58
2021/09/20 00:04:01;;;;;;;3.63;0.70;;;12.30;99.90;;;;;;5093730;28;20468;-58
2021/09/20 00:06:29;;;;;;;2.10;0.80;;;12.20;99.90;;;;;;5092848;28;20481;-58
2021/09/20 00:08:56;;;;;;;1.00;0.70;;;12.10;99.90;;;;;;5093167;28;20890;-58
2021/09/20 00:11:23;;;;;;;0.70;0.50;;;12.00;99.90;;;;;;5093546;28;20454;-58
2021/09/20 00:13:50;;;;;;;0.60;0.60;;;12.00;99.90;;;;;;5093549;28;20963;-58
2021/09/20 00:16:17;;;;;;;0.70;0.63;;;12.10;99.90;;;;;;5093477;28;20510;-58
2021/09/20 00:18:45;;;;;;;0.90;0.90;;;12.10;99.90;;;;;;5093032;28;20474;-58
2021/09/20 00:21:12;;;;;;;0.80;0.80;;;12.10;99.90;;;;;;5093144;28;20515;-58
2021/09/20 00:23:41;;;;;;;1.37;0.90;;;12.10;99.90;;;;;;5093182;28;20445;-57
2021/09/20 00:26:08;;;;;;;0.70;0.60;;;12.10;99.90;;;;;;5093245;28;20882;-58
2021/09/20 00:28:35;;;;;;;2.33;0.73;;;12.20;99.90;;;;;;5093500;28;20445;-58
2021/09/20 00:31:02;;;;;;;1.00;0.60;;;12.20;99.90;;;;;;5092638;28;20446;-58
2021/09/20 00:33:29;;;;;;;0.80;0.70;;;12.20;99.90;;;;;;5089879;28;20448;-58
2021/09/20 00:35:56;;;;;;;0.90;0.80;;;12.10;99.90;;;;;;5092380;28;21114;-58
2021/09/20 00:38:24;;;;;;;1.00;0.80;;;12.10;99.90;;;;;;5091799;28;20540;-58
2021/09/20 00:40:53;;;;;;;0.80;0.70;;;12.10;99.90;;;;;;5093043;28;20486;-58
2021/09/20 00:43:20;;;;;;;1.57;0.70;;;11.90;99.90;;;;;;5092759;28;20453;-58
2021/09/20 00:45:47;;;;;;;0.83;0.83;;;11.90;99.90;;;;;;5091881;28;20454;-58
2021/09/20 00:48:14;;;;;;;1.10;1.00;;;11.90;99.90;;;;;;5091755;28;20547;-58
2021/09/20 00:50:41;;;;;;;0.90;0.90;;;11.90;99.90;;;;;;5092594;28;20519;-57
2021/09/20 00:53:09;;;;;;;1.00;0.90;;;11.80;99.90;;;;;;5091854;28;20446;-58
2021/09/20 00:55:40;;;;;;;0.73;0.73;;;11.80;99.90;;;;;;5092494;28;20974;-58
2021/09/20 00:58:09;;;;;;;0.80;0.80;;;11.80;99.90;;;;;;5092254;28;21005;-58
2021/09/20 01:00:36;;;;;;;1.03;0.93;;;11.70;99.90;;;;;;5092367;28;21148;-58
2021/09/20 01:03:03;;;;;;;1.00;0.90;;;11.80;99.90;;;;;;5091836;28;20499;-57
2021/09/20 01:05:31;;;;;;;1.37;0.90;;;11.80;99.90;;;;;;5092599;28;20450;-58
2021/09/20 01:07:58;;;;;;;0.80;0.80;;;11.80;99.90;;;;;;5091785;28;20497;-58
2021/09/20 01:10:25;;;;;;;1.60;0.90;;;11.90;99.90;;;;;;5092300;28;20442;-58
2021/09/20 01:12:52;;;;;;;1.00;0.90;;;11.90;99.90;;;;;;5092431;28;20449;-58
2021/09/20 01:15:24;;;;;;;0.70;0.70;;;11.90;99.90;;;;;;5092003;28;20453;-57
2021/09/20 01:17:51;;;;;;;3.70;1.23;;;11.80;99.90;;;;;;5091603;28;20473;-58
2021/09/20 01:20:18;;;;;;;1.90;1.00;;;11.80;99.90;;;;;;5092077;28;20446;-58
2021/09/20 01:22:49;;;;;;;1.33;0.90;;;11.90;99.90;;;;;;5091896;28;20450;-58
2021/09/20 01:25:20;;;;;;;2.53;1.03;;;11.80;99.90;;;;;;5092190;28;20515;-57
2021/09/20 01:27:47;;;;;;;0.93;0.70;;;11.90;99.90;;;;;;5091812;28;20477;-58
2021/09/20 01:30:15;;;;;;;0.70;0.70;;;11.70;99.90;;;;;;5091529;28;20458;-58
2021/09/20 01:32:42;;;;;;;4.67;1.03;;;11.70;99.90;;;;;;5091876;28;20450;-58
2021/09/20 01:35:09;;;;;;;1.07;0.97;;;11.80;99.90;;;;;;5098694;28;20448;-58
2021/09/20 01:37:36;;;;;;;1.03;0.90;;;11.80;99.90;;;;;;5092863;28;20466;-58
2021/09/20 01:40:04;;;;;;;1.43;0.90;;;11.80;99.90;;;;;;5112238;28;20549;-58
2021/09/20 01:42:33;;;;;;;0.90;0.90;;;11.90;99.90;;;;;;5098104;28;20440;-58
2021/09/20 01:45:00;;;;;;;0.80;0.80;;;11.90;99.90;;;;;;5096784;28;20441;-57
2021/09/20 01:47:27;;;;;;;2.10;0.90;;;11.90;99.90;;;;;;5091882;28;20477;-58
2021/09/20 01:49:54;;;;;;;1.30;1.10;;;11.90;99.90;;;;;;5091965;28;20445;-58
2021/09/20 01:52:21;;;;;;;0.83;0.83;;;11.70;99.90;;;;;;5091555;28;20446;-58
2021/09/20 01:54:48;;;;;;;0.60;0.60;;;11.70;99.90;;;;;;5093160;28;20454;-58
2021/09/20 01:57:15;;;;;;;1.63;0.90;;;11.70;99.90;;;;;;5103239;28;20469;-58
2021/09/20 01:59:43;;;;;;;1.63;0.80;;;11.70;99.90;;;;;;5094404;28;20478;-58
2021/09/20 02:02:10;;;;;;;1.23;1.13;;;11.80;99.90;;;;;;5091158;28;20495;-58
2021/09/20 02:04:37;;;;;;;0.83;0.80;;;11.80;99.90;;;;;;5091332;28;20449;-57
2021/09/20 02:07:04;;;;;;;1.27;0.80;;;11.80;99.90;;;;;;5091150;28;20465;-58
2021/09/20 02:09:31;;;;;;;0.70;0.70;;;11.80;99.90;;;;;;5091561;28;20864;-58
2021/09/20 02:11:58;;;;;;;0.70;0.70;;;11.70;99.90;;;;;;5091363;28;20450;-58
2021/09/20 02:14:25;;;;;;;0.83;0.77;;;11.80;99.90;;;;;;5091378;28;20503;-57
2021/09/20 02:16:54;;;;;;;1.87;1.00;;;11.90;99.90;;;;;;5091314;28;20519;-58
2021/09/20 02:19:21;;;;;;;1.73;0.90;;;11.90;99.90;;;;;;5091100;28;20481;-58
2021/09/20 02:21:48;;;;;;;0.80;0.77;;;11.90;99.90;;;;;;5092524;28;20507;-58
2021/09/20 02:24:15;;;;;;;0.90;0.90;;;11.90;99.90;;;;;;5091033;28;20507;-58
2021/09/20 02:26:42;;;;;;;1.17;1.07;;;11.90;99.90;;;;;;5091069;28;20503;-58
2021/09/20 02:29:09;;;;;;;1.10;1.00;;;11.90;99.90;;;;;;5091206;28;20825;-58
2021/09/20 02:31:37;;;;;;;1.07;0.70;;;11.90;99.90;;;;;;5091061;28;20454;-58
2021/09/20 02:34:05;;;;;;;0.90;0.90;;;11.90;99.90;;;;;;5092688;28;20456;-58
2021/09/20 02:36:33;;;;;;;1.17;0.80;;;11.90;99.90;;;;;;5111983;28;20513;-58
2021/09/20 02:39:00;;;;;;;1.10;1.00;;;11.80;99.90;;;;;;5111956;28;20522;-58
2021/09/20 02:41:27;;;;;;;1.20;1.10;;;11.80;99.90;;;;;;5094328;28;20446;-58
2021/09/20 02:43:54;;;;;;;1.37;1.27;;;11.90;99.90;;;;;;5091885;28;20454;-58
2021/09/20 02:46:21;;;;;;;1.67;1.57;;;11.90;99.90;;;;;;5091136;28;20474;-58
2021/09/20 02:48:48;;;;;;;2.60;1.37;;;11.90;99.90;;;;;;5100047;28;20449;-58
2021/09/20 02:51:16;;;;;;;1.60;1.30;;;12.00;99.90;;;;;;5111721;28;20867;-58
2021/09/20 02:53:43;;;;;;;3.20;1.20;;;12.00;99.90;;;;;;5096102;28;20454;-58
2021/09/20 02:56:10;;;;;;;1.27;1.00;;;11.90;99.90;;;;;;5091121;28;20495;-58
2021/09/20 02:58:37;;;;;;;1.20;1.10;;;12.00;99.90;;;;;;5090778;28;20473;-58
2021/09/20 03:01:05;;;;;;;1.20;1.10;;;12.00;99.90;;;;;;5090693;28;20456;-58
2021/09/20 03:03:32;;;;;;;1.40;1.30;;;12.00;99.90;;;;;;5093276;28;20461;-58
2021/09/20 03:05:59;;;;;;;1.40;1.30;;;11.90;99.90;;;;;;5092410;28;20939;-58
2021/09/20 03:08:27;;;;;;;2.27;1.20;;;11.90;99.90;;;;;;5092619;28;20531;-58
2021/09/20 03:10:54;;;;;;;2.47;1.30;;;11.90;99.90;;;;;;5095647;28;20472;-58
2021/09/20 03:13:21;;;;;;;1.30;1.20;;;11.80;99.90;;;;;;5095209;28;20446;-58
2021/09/20 03:15:48;;;;;;;1.67;1.20;;;11.80;99.90;;;;;;5094706;28;20461;-58
2021/09/20 03:18:15;;;;;;;1.30;1.20;;;11.90;99.90;;;;;;5094782;28;20466;-58
2021/09/20 03:20:42;;;;;;;3.03;1.40;;;11.80;99.90;;;;;;5104215;28;20476;-58
2021/09/20 03:23:09;;;;;;;2.60;2.00;;;11.80;99.90;;;;;;5100399;28;20453;-58
2021/09/20 03:25:38;;;;;;;2.37;1.97;;;11.70;99.90;;;;;;5094391;28;20442;-58
2021/09/20 03:28:05;;;;;;;2.90;1.83;;;11.70;99.90;;;;;;5094346;28;20514;-58
2021/09/20 03:30:32;;;;;;;1.80;1.60;;;11.70;99.90;;;;;;5094346;28;20446;-57
2021/09/20 03:32:59;;;;;;;1.63;1.53;;;11.70;99.90;;;;;;5094817;28;20487;-58
2021/09/20 03:35:27;;;;;;;2.37;2.17;;;11.70;99.90;;;;;;5095721;28;20963;-58
2021/09/20 03:37:54;;;;;;;2.10;1.90;;;11.80;99.90;;;;;;5094116;28;20470;-58
2021/09/20 03:40:22;;;;;;;3.43;2.17;;;11.80;99.90;;;;;;5093956;28;20485;-58
2021/09/20 03:42:50;;;;;;;2.30;2.10;;;11.80;99.90;;;;;;5094798;28;20456;-57
2021/09/20 03:45:19;;;;;;;1.77;1.67;;;11.80;99.90;;;;;;5094451;28;20442;-58
2021/09/20 03:47:46;;;;;;;2.53;1.70;;;11.80;99.90;;;;;;5096461;28;20482;-58
2021/09/20 03:50:13;;;;;;;3.00;2.43;;;11.80;99.90;;;;;;5073918;28;20446;-58
2021/09/20 03:52:41;;;;;;;1.67;1.57;;;11.80;99.90;;;;;;5088409;28;20868;-58
2021/09/20 03:55:10;;;;;;;1.63;1.40;;;11.80;99.90;;;;;;5094898;28;20450;-58
2021/09/20 03:57:37;;;;;;;1.60;1.40;;;11.80;99.90;;;;;;5110270;28;20470;-58
2021/09/20 04:06:50;;;;;;;1.70;1.60;;;11.70;99.90;;;;;;5077819;28;20532;-58
2021/09/20 04:09:17;;;;;;;1.73;1.60;;;11.70;99.90;;;;;;5092027;28;20473;-58
2021/09/20 04:11:44;;;;;;;1.37;1.27;;;11.80;99.90;;;;;;5093353;28;20458;-58
2021/09/20 04:14:11;;;;;;;1.13;1.00;;;11.80;99.90;;;;;;5105207;28;20446;-58
2021/09/20 04:16:38;;;;;;;1.53;1.10;;;11.80;99.90;;;;;;5093698;28;20465;-58
2021/09/20 04:19:05;;;;;;;1.67;1.50;;;11.90;99.90;;;;;;5092759;28;20858;-57
2021/09/20 04:21:32;;;;;;;2.60;1.30;;;11.90;99.90;;;;;;5093049;28;20503;-58
2021/09/20 04:24:01;;;;;;;2.43;1.43;;;11.80;99.90;;;;;;5093528;28;20454;-57
2021/09/20 04:26:28;;;;;;;2.13;1.37;;;11.90;99.90;;;;;;5093748;28;20465;-58
2021/09/20 04:28:55;;;;;;;2.00;1.60;;;11.90;99.90;;;;;;5093316;28;20461;-58
2021/09/20 04:31:22;;;;;;;1.73;1.63;;;11.90;99.90;;;;;;5089510;28;20449;-58
2021/09/20 04:33:49;;;;;;;2.93;1.70;;;11.90;99.90;;;;;;5093258;28;20446;-58
2021/09/20 04:36:16;;;;;;;3.90;1.60;;;11.90;99.90;;;;;;5093282;28;20448;-58
2021/09/20 04:38:43;;;;;;;2.23;1.60;;;11.90;99.90;;;;;;5093357;28;20507;-58
2021/09/20 04:41:11;;;;;;;2.73;1.90;;;11.90;99.90;;;;;;5092932;28;20507;-58
2021/09/20 04:43:39;;;;;;;3.07;2.00;;;11.90;99.90;;;;;;5093303;28;20535;-58
2021/09/20 04:46:06;;;;;;;2.30;1.67;;;11.90;99.90;;;;;;5092897;28;20442;-57
2021/09/20 04:48:33;;;;;;;2.23;1.70;;;12.00;99.90;;;;;;5093383;28;20441;-58
2021/09/20 04:51:00;;;;;;;1.67;1.57;;;12.00;99.90;;;;;;5092628;28;21413;-57
2021/09/20 04:53:27;;;;;;;3.27;2.37;;;11.90;99.90;;;;;;5092594;28;20506;-57
2021/09/20 04:55:54;;;;;;;4.10;2.07;;;11.90;99.90;;;;;;5092764;28;20452;-57
2021/09/20 04:58:22;;;;;;;1.87;1.73;;;11.90;99.90;;;;;;5093215;28;20466;-57
2021/09/20 05:00:49;;;;;;;2.43;2.10;;;11.90;99.90;;;;;;5092093;28;20908;-57
2021/09/20 05:03:16;;;;;;;3.20;1.80;;;11.90;99.90;;;;;;5092852;28;20450;-57
2021/09/20 05:05:43;;;;;;;4.50;1.93;;;11.90;99.90;;;;;;5092574;28;20450;-57
2021/09/20 05:08:12;;;;;;;2.30;1.90;;;11.80;99.90;;;;;;5092635;28;20473;-57
2021/09/20 05:10:39;;;;;;;2.73;1.80;;;11.80;99.90;;;;;;5092217;28;20478;-57
2021/09/20 05:13:06;;;;;;;2.67;2.10;;;11.80;99.90;;;;;;5092671;28;20445;-57
2021/09/20 05:15:35;;;;;;;1.93;1.80;;;11.80;99.90;;;;;;5092460;28;20453;-57
2021/09/20 05:18:01;;;;;;;3.00;2.27;;;11.80;99.90;;;;;;5092489;28;20523;-57
2021/09/20 05:20:28;;;;;;;2.20;2.00;;;11.80;99.90;;;;;;5091937;28;20470;-57
2021/09/20 05:22:56;;;;;;;3.93;1.97;;;11.80;99.90;;;;;;5092468;28;20492;-57
2021/09/20 05:25:25;;;;;;;4.23;2.03;;;11.80;99.90;;;;;;5092210;28;20481;-57
2021/09/20 05:27:52;;;;;;;2.10;1.70;;;11.80;99.90;;;;;;5091905;28;20473;-57
2021/09/20 05:30:23;;;;;;;2.73;2.20;;;11.80;99.90;;;;;;5092079;28;20477;-57
2021/09/20 05:32:51;;;;;;;2.03;1.83;;;11.90;99.90;;;;;;5092376;28;20446;-58
2021/09/20 05:35:18;;;;;;;3.03;2.30;;;11.90;99.90;;;;;;5092041;28;20530;-57
2021/09/20 05:37:46;;;;;;;1.97;1.77;;;11.80;99.90;;;;;;5092251;28;20462;-57
2021/09/20 05:40:15;;;;;;;1.83;1.70;;;11.80;99.90;;;;;;5091926;28;20496;-58
2021/09/20 05:42:43;;;;;;;1.80;1.60;;;11.80;99.90;;;;;;5092349;28;20457;-57
2021/09/20 05:45:11;;;;;;;2.80;2.17;;;11.90;99.90;;;;;;5092140;28;20485;-57
2021/09/20 05:47:39;;;;;;;2.30;2.10;;;11.90;99.90;;;;;;5091465;28;20477;-57
2021/09/20 05:50:09;;;;;;;2.20;1.93;;;11.90;99.90;;;;;;5091676;28;20499;-57
2021/09/20 05:52:37;;;;;;;2.47;1.90;;;12.00;99.90;;;;;;5090936;28;20454;-57
2021/09/20 05:55:05;;;;;;;5.40;2.20;;;11.90;99.90;;;;;;5091526;28;20450;-57
2021/09/20 05:57:32;;;;;;;3.00;2.07;;;12.00;99.90;;;;;;5079301;28;20883;-57
2021/09/20 05:59:59;;;;;;;2.67;2.20;;;11.90;99.90;;;;;;5071756;28;20479;-58
2021/09/20 06:02:25;;;;;;;4.60;2.83;;;11.90;99.90;;;;;;5091315;28;20450;-57
2021/09/20 06:04:52;;;;;;;3.07;2.20;;;11.80;99.90;;;;;;5091935;28;20446;-57
2021/09/20 06:07:21;;;;;;;6.00;2.70;;;11.80;99.90;;;;;;5080526;28;21065;-57
2021/09/20 06:09:48;;;;;;;3.90;2.70;;;11.90;99.90;;;;;;5071614;28;20447;-57
2021/09/20 06:12:15;;;;;;;4.63;2.80;;;11.90;99.90;;;;;;5071411;28;20572;-58
2021/09/20 06:14:42;;;;;;;3.90;2.80;;;11.90;99.90;;;;;;5091268;28;20544;-57
2021/09/20 06:17:09;;;;;;;4.13;2.77;;;11.90;99.90;;;;;;5091683;28;20462;-57
2021/09/20 06:19:37;;;;;;;5.40;3.50;;;11.80;99.90;;;;;;5094767;28;20477;-58
2021/09/20 06:22:04;;;;;;;3.40;3.07;;;11.80;99.90;;;;;;5088390;28;20503;-57
2021/09/20 06:24:32;;;;;;;3.50;2.90;;;11.80;99.90;;;;;;5091596;28;20450;-57
2021/09/20 06:26:59;;;;;;;3.93;3.10;;;11.80;99.90;;;;;;5071354;28;21000;-57
2021/09/20 06:29:26;;;;;;;3.77;3.33;;;11.90;99.90;;;;;;5071623;28;20443;-58
2021/09/20 06:31:53;;;;;;;5.47;3.57;;;12.00;99.90;;;;;;5071293;28;20492;-57
2021/09/20 06:34:20;;;;;;;6.07;3.20;;;12.00;99.90;;;;;;5075344;28;20586;-57
2021/09/20 06:36:47;;;;;;;6.20;2.97;;;12.10;99.90;;;;;;5091131;28;20466;-58
2021/09/20 06:39:14;;;;;;;5.33;3.40;;;12.00;99.90;;;;;;5091526;28;20474;-58
2021/09/20 06:41:43;;;;;;;3.93;3.33;;;12.10;99.90;;;;;;5091245;28;20486;-58
2021/09/20 06:44:10;;;;;;;4.77;4.07;;;12.00;99.90;;;;;;5093062;28;21011;-57
2021/09/20 06:46:38;;;;;;;6.47;4.33;;;12.10;99.90;;;;;;5089156;28;20474;-57
2021/09/20 06:49:07;;;;;;;4.73;3.63;;;12.20;99.90;;;;;;5092257;28;20457;-57
2021/09/20 06:51:34;;;;;;;6.80;4.60;;;12.20;99.90;;;;;;5094644;28;20446;-58
2021/09/20 06:54:01;;;;;;;5.47;3.97;;;12.10;99.90;;;;;;5094940;28;20442;-57
2021/09/20 06:56:29;;;;;;;8.07;4.33;;;12.20;99.90;;;;;;5094802;28;20488;-57
2021/09/20 06:58:57;;;;;;;5.50;3.70;;;12.20;99.90;;;;;;5085704;28;20491;-57
2021/09/20 07:01:24;;;;;;;12.83;4.67;;;12.30;99.90;;;;;;5095013;28;20998;-57
2021/09/20 07:03:51;;;;;;;5.40;3.80;;;12.40;99.90;;;;;;5095430;28;20454;-57
2021/09/20 07:06:18;;;;;;;6.77;5.50;;;12.30;99.90;;;;;;5094838;28;20454;-57
2021/09/20 07:08:45;;;;;;;6.87;4.73;;;12.40;99.90;;;;;;5094907;28;20454;-57
2021/09/20 07:11:12;;;;;;;6.77;4.53;;;12.40;99.90;;;;;;5094779;28;20461;-57
2021/09/20 07:13:39;;;;;;;7.73;5.07;;;12.50;99.90;;;;;;5085508;28;20450;-57
2021/09/20 07:16:08;;;;;;;10.40;5.30;;;12.50;99.90;;;;;;5081838;28;20450;-57
2021/09/20 07:18:35;;;;;;;7.03;4.50;;;12.40;99.90;;;;;;5074711;28;20447;-57
2021/09/20 07:21:03;;;;;;;7.73;5.00;;;12.40;99.90;;;;;;5074315;28;20475;-57
2021/09/20 07:23:30;;;;;;;10.50;4.60;;;12.50;99.90;;;;;;5090003;28;20955;-57
2021/09/20 07:25:57;;;;;;;7.10;4.00;;;12.60;99.90;;;;;;5094734;28;20865;-57
2021/09/20 07:28:24;;;;;;;7.37;4.90;;;12.70;99.90;;;;;;5094427;28;20466;-57
2021/09/20 07:30:52;;;;;;;7.70;4.90;;;12.70;99.90;;;;;;5094720;28;20434;-57
2021/09/20 07:33:20;;;;;;;8.13;5.07;;;12.70;99.90;;;;;;5094980;28;20450;-57
2021/09/20 07:35:47;;;;;;;13.90;5.17;;;12.80;99.90;;;;;;5094583;28;20445;-58
2021/09/20 07:38:14;;;;;;;7.60;5.30;;;12.90;99.90;;;;;;5094490;28;20470;-57
2021/09/20 07:40:41;;;;;;;7.43;4.73;;;13.00;99.90;;;;;;5094033;28;20484;-58
2021/09/20 07:43:09;;;;;;;8.77;4.60;;;13.10;99.90;;;;;;5090084;28;20495;-58
2021/09/20 07:45:38;;;;;;;6.90;4.67;;;13.20;99.90;;;;;;5093930;28;20457;-58
2021/09/20 07:48:06;;;;;;;5.50;4.30;;;13.30;99.90;;;;;;5091369;28;20496;-57
2021/09/20 07:50:34;;;;;;;4.87;3.73;;;13.30;99.90;;;;;;5092717;28;20827;-58
2021/09/20 07:53:01;;;;;;;7.30;3.43;;;13.40;99.90;;;;;;5094389;28;20446;-58
2021/09/20 07:55:34;;;;;;;3.40;2.90;;;13.40;99.90;;;;;;5092594;28;20878;-58
2021/09/20 07:58:01;;;;;;;6.30;3.50;;;13.40;99.90;;;;;;5093625;28;20478;-58
2021/09/20 08:00:28;;;;;;;2.87;2.50;;;13.50;99.90;;;;;;5094105;28;20478;-58
2021/09/20 08:02:55;;;;;;;2.40;2.20;;;13.50;99.90;;;;;;5094238;28;20450;-58
2021/09/20 08:05:22;;;;;;;2.90;2.30;;;13.60;99.90;;;;;;5092822;28;21233;-58
2021/09/20 08:07:51;;;;;;;4.70;2.30;;;13.70;99.90;;;;;;5092447;28;20934;-58
2021/09/20 08:10:18;;;;;;;5.30;2.73;;;13.80;99.90;;;;;;5090700;28;20442;-58
2021/09/20 08:12:48;;;;;;;3.50;2.10;;;13.70;99.90;;;;;;5093605;28;20454;-58
2021/09/20 08:15:15;;;;;;;4.70;1.93;;;13.80;99.90;;;;;;5092724;28;20450;-58
2021/09/20 08:17:44;;;;;;;2.10;1.80;;;14.00;99.90;;;;;;5093045;28;20849;-57
2021/09/20 08:20:13;;;;;;;2.40;2.20;;;14.10;99.90;;;;;;5090906;28;20907;-58
2021/09/20 08:22:40;;;;;;;2.87;2.27;;;14.10;99.90;;;;;;5092805;28;20534;-58
2021/09/20 08:25:09;;;;;;;3.57;2.00;;;14.20;99.90;;;;;;5093313;28;20460;-58
2021/09/20 08:27:36;;;;;;;2.17;2.00;;;14.40;99.90;;;;;;5093025;28;20519;-58
2021/09/20 08:30:04;;;;;;;2.90;2.20;;;14.70;99.90;;;;;;5092934;28;20475;-58
2021/09/20 08:32:31;;;;;;;3.03;2.20;;;14.90;99.90;;;;;;5093305;28;20877;-59
2021/09/20 08:34:58;;;;;;;2.67;2.10;;;15.00;99.90;;;;;;5093250;28;20447;-58
2021/09/20 08:37:25;;;;;;;2.60;1.80;;;15.10;99.90;;;;;;5092793;28;20507;-59
2021/09/20 08:39:53;;;;;;;3.50;2.20;;;15.20;99.90;;;;;;5083616;28;20442;-58
2021/09/20 08:42:21;;;;;;;2.90;2.00;;;15.30;99.90;;;;;;5091917;28;20531;-58
2021/09/20 08:44:48;;;;;;;3.10;1.70;;;15.20;99.90;;;;;;5089902;28;20454;-58
2021/09/20 08:47:17;;;;;;;1.70;1.60;;;15.30;99.90;;;;;;5092617;28;20485;-58
2021/09/20 08:49:44;;;;;;;3.20;2.20;;;15.30;99.90;;;;;;5092303;28;20871;-59
2021/09/20 08:52:12;;;;;;;1.57;1.47;;;15.40;99.90;;;;;;5092088;28;20864;-58
2021/09/20 08:58:47;;;;;;;1.87;1.77;;;15.60;99.90;;;;;;5092346;28;20496;-60
2021/09/20 09:01:16;;;;;;;1.70;1.60;;;16.30;99.90;;;;;;5091117;28;20470;-60
2021/09/20 09:03:43;;;;;;;2.73;1.80;;;17.40;99.90;;;;;;5091138;28;20510;-60
2021/09/20 09:06:10;;;;;;;2.30;2.00;;;18.30;99.90;;;;;;5091748;28;20449;-60
2021/09/20 09:08:39;;;;;;;1.73;1.63;;;18.90;99.90;;;;;;5090388;28;20503;-60
2021/09/20 09:11:08;;;;;;;1.47;1.37;;;19.20;99.90;;;;;;5092167;28;20492;-61
2021/09/20 09:13:38;;;;;;;1.40;1.30;;;19.70;99.90;;;;;;5080842;28;20447;-60
2021/09/20 09:16:21;;;;;;;1.40;1.30;;;19.40;99.90;;;;;;5077859;28;20446;-60
2021/09/20 09:19:03;;;;;;;1.20;1.10;;;19.10;99.90;;;;;;5092392;28;20461;-61
2021/09/20 09:21:32;;;;;;;1.33;1.23;;;19.30;99.90;;;;;;5091560;28;20539;-60
2021/09/20 09:24:01;;;;;;;1.43;1.33;;;19.90;99.90;;;;;;5092399;28;20503;-60
2021/09/20 09:26:28;;;;;;;1.30;1.20;;;20.60;99.90;;;;;;5091826;28;20474;-60
2021/09/20 09:29:06;;;;;;;1.90;1.23;;;21.20;99.90;;;;;;5092074;28;20446;-61
2021/09/20 09:31:36;;;;;;;1.23;1.13;;;21.60;99.90;;;;;;5091942;28;20498;-60
2021/09/20 09:34:16;;;;;;;1.30;1.20;;;21.00;99.90;;;;;;5092552;28;20492;-60
2021/09/20 09:36:43;;;;;;;1.73;1.30;;;21.10;99.90;;;;;;5091804;28;20469;-60
2021/09/20 09:39:11;;;;;;;1.00;1.00;;;21.10;99.90;;;;;;5091691;28;20511;-60
2021/09/20 09:41:40;;;;;;;1.50;1.00;;;21.00;99.90;;;;;;5091578;28;20469;-60
2021/09/20 09:44:09;;;;;;;1.30;1.20;;;20.60;99.90;;;;;;5092185;28;20446;-60
2021/09/20 09:46:39;;;;;;;1.60;1.00;;;20.50;99.90;;;;;;5091526;28;20490;-60
2021/09/20 09:49:14;;;;;;;1.27;1.17;;;20.40;99.90;;;;;;5092046;28;20487;-61
2021/09/20 09:51:56;;;;;;;1.50;1.40;;;20.20;99.90;;;;;;5090983;28;20577;-60
2021/09/20 09:54:27;;;;;;;3.23;1.10;;;19.70;99.90;;;;;;5082108;28;20526;-61
2021/09/20 09:57:15;;;;;;;1.40;1.30;;;19.60;99.90;;;;;;5091638;28;20544;-60
2021/09/20 09:59:43;;;;;;;1.20;1.10;;;20.00;99.90;;;;;;5091910;28;20445;-59
2021/09/20 10:02:21;;;;;;;1.67;1.20;;;20.60;99.90;;;;;;5090703;28;20531;-59
2021/09/20 10:04:56;;;;;;;1.00;1.00;;;20.70;99.90;;;;;;5091456;28;20449;-59
2021/09/20 10:07:26;;;;;;;1.60;1.17;;;21.10;99.90;;;;;;5091676;28;20461;-60
2021/09/20 10:09:54;;;;;;;0.90;0.90;;;21.50;99.90;;;;;;5091305;28;20507;-60
2021/09/20 10:12:24;;;;;;;1.10;1.00;;;21.70;99.90;;;;;;5085761;28;20446;-60
2021/09/20 10:14:55;;;;;;;1.57;1.00;;;21.80;99.90;;;;;;5091494;28;20465;-59
2021/09/20 10:17:26;;;;;;;1.30;1.00;;;22.10;99.90;;;;;;5091021;28;20470;-60
2021/09/20 10:19:54;;;;;;;1.00;0.90;;;22.30;99.90;;;;;;5090979;28;20450;-60
2021/09/20 10:22:22;;;;;;;2.77;1.00;;;22.60;99.90;;;;;;5091035;28;20530;-60
2021/09/20 10:24:51;;;;;;;1.03;1.00;;;22.50;99.90;;;;;;5091492;28;21129;-61
2021/09/20 10:27:20;;;;;;;0.80;0.80;;;22.70;99.90;;;;;;5090765;28;20526;-60
2021/09/20 10:29:51;;;;;;;0.80;0.80;;;22.70;99.90;;;;;;5091266;28;20899;-60
2021/09/20 10:32:20;;;;;;;1.00;0.90;;;22.40;99.90;;;;;;5091040;28;20447;-59
2021/09/20 10:34:49;;;;;;;1.83;1.00;;;22.40;99.90;;;;;;5088562;28;20449;-59
2021/09/20 10:37:18;;;;;;;1.00;0.90;;;22.00;99.90;;;;;;5091032;28;20470;-60
2021/09/20 10:39:51;;;;;;;0.73;0.73;;;21.40;99.90;;;;;;5091314;28;20529;-60
2021/09/20 10:43:04;;;;;;;1.00;0.90;;;20.50;99.90;;;;;;5091265;28;20903;-60
2021/09/20 10:45:44;;;;;;;1.07;0.97;;;20.20;99.90;;;;;;5072487;28;20544;-60
2021/09/20 10:48:21;;;;;;;0.70;0.70;;;19.90;99.90;;;;;;5091021;28;20519;-59
2021/09/20 10:50:52;;;;;;;0.87;0.87;;;19.30;99.90;;;;;;5091055;28;20494;-60
2021/09/20 10:53:22;;;;;;;0.70;0.70;;;19.00;99.90;;;;;;5090628;28;20450;-59
2021/09/20 10:56:18;;;;;;;1.30;0.80;;;18.30;99.90;;;;;;5087856;28;20450;-59
2021/09/20 10:59:23;;;;;;;1.50;1.13;;;17.50;99.90;;;;;;5090945;28;20450;-59
2021/09/20 11:01:59;;;;;;;0.80;0.80;;;17.20;99.90;;;;;;5090933;28;20481;-59
2021/09/20 11:04:32;;;;;;;2.27;1.30;;;16.70;99.90;;;;;;5090814;28;20446;-60
2021/09/20 11:07:22;;;;;;;1.10;1.00;;;16.60;99.90;;;;;;5090664;28;20902;-59
2021/09/20 11:09:52;;;;;;;1.20;1.10;;;16.70;99.90;;;;;;5072556;28;20492;-60
2021/09/20 11:12:22;;;;;;;1.40;0.93;;;17.00;99.90;;;;;;5091014;28;20859;-59
2021/09/20 11:15:06;;;;;;;1.00;0.90;;;17.10;99.90;;;;;;5090498;28;20442;-59
2021/09/20 11:17:42;;;;;;;1.43;0.90;;;17.30;99.90;;;;;;5087519;28;20485;-59
2021/09/20 11:20:22;;;;;;;1.03;0.93;;;17.50;99.90;;;;;;5090554;28;20445;-59
2021/09/20 11:22:51;;;;;;;1.17;1.00;;;17.50;99.90;;;;;;5081678;28;20481;-59
2021/09/20 11:25:19;;;;;;;1.30;0.83;;;17.30;99.90;;;;;;5091273;28;20477;-60
2021/09/20 11:27:47;;;;;;;2.17;1.20;;;17.60;99.90;;;;;;5090779;28;20466;-60
2021/09/20 11:30:17;;;;;;;2.00;1.00;;;17.60;99.90;;;;;;5093986;28;20445;-60
2021/09/20 11:32:47;;;;;;;1.37;1.27;;;17.60;99.90;;;;;;5094531;28;20449;-60
2021/09/20 11:35:16;;;;;;;1.63;1.00;;;17.70;99.90;;;;;;5094198;28;20453;-60
2021/09/20 11:37:43;;;;;;;1.10;1.00;;;18.00;99.90;;;;;;5094336;28;20472;-60
2021/09/20 11:40:13;;;;;;;1.30;1.07;;;18.10;99.90;;;;;;5093517;28;20454;-59
2021/09/20 11:42:49;;;;;;;1.10;1.00;;;18.20;99.90;;;;;;5094247;28;20567;-59
2021/09/20 11:45:20;;;;;;;1.20;1.10;;;18.50;99.90;;;;;;5094250;28;21029;-60
2021/09/20 11:47:49;;;;;;;1.13;1.00;;;18.60;99.90;;;;;;5094163;28;21326;-60
2021/09/20 11:50:21;;;;;;;1.20;1.00;;;18.10;99.90;;;;;;5093611;28;20802;-60
2021/09/20 11:52:51;;;;;;;1.20;1.10;;;17.90;99.90;;;;;;5094093;28;20446;-60
2021/09/20 11:55:24;;;;;;;0.90;0.90;;;17.90;99.90;;;;;;5093643;28;20449;-59
2021/09/20 11:57:54;;;;;;;1.10;1.00;;;17.90;99.90;;;;;;5094022;28;20874;-60
2021/09/20 12:00:24;;;;;;;1.00;0.90;;;17.70;99.90;;;;;;5093394;28;20450;-60
2021/09/20 12:02:53;;;;;;;1.23;1.13;;;17.50;99.90;;;;;;5094036;28;21003;-59
2021/09/20 12:05:22;;;;;;;0.80;0.80;;;17.50;99.90;;;;;;5093786;28;20466;-59
2021/09/20 12:07:52;;;;;;;0.80;0.80;;;17.60;99.90;;;;;;5093954;28;20469;-60
2021/09/20 12:10:27;;;;;;;0.80;0.80;;;17.90;99.90;;;;;;5092922;28;20446;-60
2021/09/20 12:12:55;;;;;;;3.13;1.00;;;18.10;99.90;;;;;;5093697;28;20441;-60
2021/09/20 12:15:27;;;;;;;0.90;0.87;;;17.60;99.90;;;;;;5093482;28;20499;-60
2021/09/20 12:17:57;;;;;;;1.50;0.90;;;17.70;99.90;;;;;;5093497;28;20474;-60
2021/09/20 12:20:32;;;;;;;0.80;0.80;;;18.00;99.90;;;;;;5093054;28;20446;-59
2021/09/20 12:23:02;;;;;;;0.90;0.90;;;17.70;99.90;;;;;;5093575;28;20493;-59
2021/09/20 12:25:45;;;;;;;2.80;1.00;;;17.70;99.90;;;;;;5092284;28;20446;-59
2021/09/20 12:28:21;;;;;;;0.80;0.80;;;17.70;99.90;;;;;;5093197;28;20470;-60
2021/09/20 12:30:58;;;;;;;0.70;0.70;;;17.50;99.90;;;;;;5093009;28;20935;-60
2021/09/20 12:33:25;;;;;;;1.03;0.70;;;17.30;99.90;;;;;;5093757;28;20821;-60
2021/09/20 12:35:53;;;;;;;1.37;0.73;;;17.20;99.90;;;;;;5093422;28;20879;-60
2021/09/20 12:38:26;;;;;;;0.80;0.70;;;17.20;99.90;;;;;;5093039;28;20477;-60
2021/09/20 12:40:57;;;;;;;0.70;0.70;;;17.10;99.90;;;;;;5092372;28;20503;-60
2021/09/20 12:43:33;;;;;;;0.80;0.70;;;17.20;99.90;;;;;;5093245;28;21272;-60
2021/09/20 12:46:10;;;;;;;0.70;0.63;;;17.30;99.90;;;;;;5093506;28;20449;-60
2021/09/20 12:48:40;;;;;;;0.83;0.77;;;17.50;99.90;;;;;;5093012;28;20446;-60
2021/09/20 12:51:08;;;;;;;1.40;0.93;;;17.30;99.90;;;;;;5092956;28;20470;-60
2021/09/20 12:53:37;;;;;;;1.00;0.90;;;17.30;99.90;;;;;;5093374;28;20434;-60
2021/09/20 12:56:08;;;;;;;1.53;0.80;;;17.10;99.90;;;;;;5092886;28;20438;-59
2021/09/20 12:58:38;;;;;;;0.80;0.80;;;17.00;99.90;;;;;;5092922;28;20450;-60
2021/09/20 13:01:09;;;;;;;1.20;0.70;;;17.10;99.90;;;;;;5092813;28;20460;-60
2021/09/20 13:03:37;;;;;;;1.27;0.80;;;17.20;99.90;;;;;;5092898;28;20994;-59
2021/09/20 13:06:09;;;;;;;0.70;0.67;;;17.20;99.90;;;;;;5093114;28;20449;-60